Time;durP1;ratioP1;P1;durP2;ratioP2;P2;SDS_P1;SDS_P2;PMS_P1;PMS_P2;Temp;Humidity;BMP_temperature;BMP_pressure;BME280_temperature;BME280_humidity;BME280_pressure;Samples;Min_cycle;Max_cycle;Signal;HPM_P1;HPM_P2
2023/09/22 00:01:33;;;;;;;;;;;;;;;24.33;54.65;100661.56;7395815;19;1848;-37
2023/09/22 00:04:02;;;;;;;;;;;;;;;24.24;54.46;100673.41;7397164;19;1444;-38
2023/09/22 00:06:30;;;;;;;;;;;;;;;24.20;54.76;100673.75;7397278;19;1472;-38
2023/09/22 00:08:58;;;;;;;;;;;;;;;24.22;54.66;100666.31;7396891;19;1855;-38
2023/09/22 00:11:26;;;;;;;;;;;;;;;24.18;54.98;100667.69;7394063;19;1855;-38
2023/09/22 00:13:55;;;;;;;;;;;;;;;24.28;54.86;100661.25;7397331;19;1610;-38
2023/09/22 00:16:26;;;;;;;;;;;;;;;24.28;54.41;100656.69;7397524;19;1618;-38
2023/09/22 00:18:55;;;;;;;;;;;;;;;24.22;54.35;100660.06;7397367;19;1372;-38
2023/09/22 00:21:23;;;;;;;;;;;;;;;24.26;54.46;100647.91;7396978;19;1559;-38
2023/09/22 00:23:52;;;;;;;;;;;;;;;24.30;54.31;100637.59;7396805;19;1512;-38
2023/09/22 00:26:20;;;;;;;;;;;;;;;24.19;54.72;100634.25;7397386;19;1839;-38
2023/09/22 00:28:48;;;;;;;;;;;;;;;24.13;54.99;100629.53;7396696;19;1722;-38
2023/09/22 00:31:17;;;;;;;;;;;;;;;24.23;54.67;100650.94;7395598;19;1852;-38
2023/09/22 00:33:47;;;;;;;;;;;;;;;24.27;54.69;100646.03;7396459;19;1743;-38
2023/09/22 00:36:16;;;;;;;;;;;;;;;24.25;54.97;100664.28;7380886;19;1703;-37
2023/09/22 00:38:45;;;;;;;;;;;;;;;24.19;54.70;100665.81;7395874;19;1498;-38
2023/09/22 00:41:13;;;;;;;;;;;;;;;24.12;55.45;100687.28;7396045;19;1730;-37
2023/09/22 00:43:41;;;;;;;;;;;;;;;24.07;55.11;100678.00;7395981;19;1395;-38
2023/09/22 00:46:12;;;;;;;;;;;;;;;24.15;55.01;100675.28;7396000;19;1207;-38
2023/09/22 00:48:42;;;;;;;;;;;;;;;24.20;54.56;100679.16;7396260;19;1387;-38
2023/09/22 00:51:13;;;;;;;;;;;;;;;24.20;54.80;100662.94;7394878;19;1847;-37
2023/09/22 00:53:41;;;;;;;;;;;;;;;24.17;54.59;100655.19;7395905;19;1717;-38
2023/09/22 00:56:10;;;;;;;;;;;;;;;24.14;54.65;100658.22;7395172;19;1765;-38
2023/09/22 00:58:38;;;;;;;;;;;;;;;24.12;54.73;100654.84;7393086;19;1968;-38
2023/09/22 01:01:06;;;;;;;;;;;;;;;24.25;54.66;100672.38;7396888;19;1550;-38
2023/09/22 01:03:35;;;;;;;;;;;;;;;24.21;54.42;100659.25;7394489;19;1852;-38
2023/09/22 01:06:03;;;;;;;;;;;;;;;24.17;54.53;100655.19;7396281;19;1412;-37
2023/09/22 01:08:34;;;;;;;;;;;;;;;24.12;54.64;100699.94;7395074;19;1603;-38
2023/09/22 01:11:04;;;;;;;;;;;;;;;23.99;54.95;100660.81;7394149;19;1851;-38
2023/09/22 01:13:32;;;;;;;;;;;;;;;24.14;54.42;100665.50;7394336;19;1836;-38
2023/09/22 01:16:01;;;;;;;;;;;;;;;24.07;54.68;100650.97;7395474;19;1219;-38
2023/09/22 01:18:29;;;;;;;;;;;;;;;23.98;54.82;100652.88;7395616;19;1694;-38
2023/09/22 01:20:59;;;;;;;;;;;;;;;24.05;54.58;100643.03;7395393;19;1552;-40
2023/09/22 01:23:30;;;;;;;;;;;;;;;23.91;54.84;100641.88;7394772;19;1729;-38
2023/09/22 01:25:58;;;;;;;;;;;;;;;23.75;55.29;100642.72;7395963;19;1536;-38
2023/09/22 01:28:27;;;;;;;;;;;;;;;23.96;55.17;100649.50;7394886;19;1231;-38
2023/09/22 01:30:55;;;;;;;;;;;;;;;24.03;54.63;100655.88;7394952;19;1848;-37
2023/09/22 01:33:23;;;;;;;;;;;;;;;23.94;54.86;100638.00;7395701;19;1196;-37
2023/09/22 01:35:52;;;;;;;;;;;;;;;23.75;55.18;100650.81;7379592;19;1398;-38
2023/09/22 01:38:23;;;;;;;;;;;;;;;23.68;55.47;100660.63;7395910;19;1433;-37
2023/09/22 01:40:54;;;;;;;;;;;;;;;23.67;55.38;100660.78;7396512;19;1368;-38
2023/09/22 01:43:22;;;;;;;;;;;;;;;23.62;55.50;100659.44;7395396;19;1196;-38
2023/09/22 01:45:50;;;;;;;;;;;;;;;23.56;55.66;100659.28;7394898;19;1710;-38
2023/09/22 01:48:19;;;;;;;;;;;;;;;23.54;55.83;100666.69;7395515;19;1764;-38
2023/09/22 01:50:47;;;;;;;;;;;;;;;23.52;55.83;100666.03;7393142;19;1865;-38
2023/09/22 01:53:15;;;;;;;;;;;;;;;23.46;55.72;100656.72;7394148;19;1952;-37
2023/09/22 01:55:46;;;;;;;;;;;;;;;23.54;55.80;100672.09;7395379;19;1848;-38
2023/09/22 01:58:17;;;;;;;;;;;;;;;23.51;55.83;100673.25;7395567;19;1788;-38
2023/09/22 02:00:45;;;;;;;;;;;;;;;23.46;55.73;100670.22;7401237;19;1611;-38
2023/09/22 02:03:13;;;;;;;;;;;;;;;23.43;55.81;100649.78;7400668;19;1559;-38
2023/09/22 02:05:41;;;;;;;;;;;;;;;23.40;56.01;100652.84;7401717;19;1441;-38
2023/09/22 02:08:10;;;;;;;;;;;;;;;23.36;56.07;100648.78;7401326;19;1400;-38
2023/09/22 02:10:38;;;;;;;;;;;;;;;23.39;56.04;100637.66;7401293;19;1849;-38
2023/09/22 02:13:09;;;;;;;;;;;;;;;23.42;56.15;100669.72;7398328;19;2367;-38
2023/09/22 02:15:39;;;;;;;;;;;;;;;23.41;55.96;100672.56;7400480;19;1555;-38
2023/09/22 02:18:08;;;;;;;;;;;;;;;23.45;55.89;100659.59;7401135;19;1722;-38
2023/09/22 02:20:40;;;;;;;;;;;;;;;23.43;55.89;100659.75;7401402;19;1863;-38
2023/09/22 02:23:08;;;;;;;;;;;;;;;23.37;55.66;100660.44;7399976;19;1620;-38
2023/09/22 02:25:37;;;;;;;;;;;;;;;23.36;55.79;100656.88;7400162;19;1381;-37
2023/09/22 02:28:06;;;;;;;;;;;;;;;23.34;56.10;100663.47;7400937;19;1414;-37
2023/09/22 02:30:37;;;;;;;;;;;;;;;23.34;55.70;100672.41;7401653;19;1846;-38
2023/09/22 02:33:08;;;;;;;;;;;;;;;23.29;55.65;100657.72;7400663;19;1649;-38
2023/09/22 02:35:36;;;;;;;;;;;;;;;23.29;55.70;100669.34;7384853;19;1821;-38
2023/09/22 02:38:04;;;;;;;;;;;;;;;23.30;55.69;100665.66;7401380;19;1615;-38
2023/09/22 02:40:33;;;;;;;;;;;;;;;23.29;55.79;100669.34;7400450;19;1452;-38
2023/09/22 02:43:01;;;;;;;;;;;;;;;23.26;55.79;100666.13;7401133;19;1409;-38
2023/09/22 02:45:29;;;;;;;;;;;;;;;23.23;55.79;100653.84;7399968;19;1603;-38
2023/09/22 02:47:57;;;;;;;;;;;;;;;23.26;55.96;100685.03;7400698;19;1453;-37
2023/09/22 02:50:28;;;;;;;;;;;;;;;23.30;55.87;100672.88;7399187;19;1850;-38
2023/09/22 02:52:57;;;;;;;;;;;;;;;23.31;55.66;100671.88;7401435;19;1385;-37
2023/09/22 02:55:25;;;;;;;;;;;;;;;23.27;55.64;100681.31;7399942;19;1708;-38
2023/09/22 02:57:54;;;;;;;;;;;;;;;23.27;55.80;100675.94;7400530;19;1611;-38
2023/09/22 03:00:22;;;;;;;;;;;;;;;23.21;55.66;100678.28;7400203;19;1690;-38
2023/09/22 03:02:52;;;;;;;;;;;;;;;23.19;55.72;100669.50;7399526;19;1622;-38
2023/09/22 03:05:21;;;;;;;;;;;;;;;23.15;55.77;100667.31;7398926;19;1328;-38
2023/09/22 03:07:52;;;;;;;;;;;;;;;23.20;56.02;100691.94;7400077;19;1752;-38
2023/09/22 03:10:21;;;;;;;;;;;;;;;23.23;55.86;100697.84;7399254;19;1513;-38
2023/09/22 03:12:51;;;;;;;;;;;;;;;23.23;55.83;100686.19;7397410;19;1837;-38
2023/09/22 03:15:20;;;;;;;;;;;;;;;23.25;55.87;100678.78;7398644;19;1326;-38
2023/09/22 03:17:48;;;;;;;;;;;;;;;23.26;56.02;100691.28;7398930;19;1765;-37
2023/09/22 03:20:17;;;;;;;;;;;;;;;23.22;55.75;100696.16;7397627;19;1574;-38
2023/09/22 03:22:45;;;;;;;;;;;;;;;23.19;55.58;100701.88;7399940;19;1882;-38
2023/09/22 03:25:17;;;;;;;;;;;;;;;23.15;55.75;100692.41;7399006;19;1634;-38
2023/09/22 03:27:45;;;;;;;;;;;;;;;23.13;55.89;100696.31;7398398;19;1874;-38
2023/09/22 03:30:14;;;;;;;;;;;;;;;23.12;55.78;100706.25;7397655;19;1827;-38
2023/09/22 03:32:42;;;;;;;;;;;;;;;23.10;55.54;100710.97;7396938;19;1853;-38
2023/09/22 03:35:11;;;;;;;;;;;;;;;23.10;55.40;100716.38;7398050;19;1298;-38
2023/09/22 03:37:40;;;;;;;;;;;;;;;23.08;55.57;100714.81;7385020;19;1662;-38
2023/09/22 03:40:13;;;;;;;;;;;;;;;23.07;55.72;100697.78;7398348;19;1796;-37
2023/09/22 03:42:44;;;;;;;;;;;;;;;23.09;55.55;100727.31;7398979;19;1586;-38
2023/09/22 03:45:13;;;;;;;;;;;;;;;23.06;55.39;100720.41;7398428;19;1598;-43
2023/09/22 03:47:41;;;;;;;;;;;;;;;23.10;55.82;100718.19;7398584;19;1494;-45
2023/09/22 03:50:10;;;;;;;;;;;;;;;23.13;55.53;100726.81;7397116;19;1606;-45
2023/09/22 03:52:40;;;;;;;;;;;;;;;23.12;55.56;100726.97;7397456;19;1844;-45
2023/09/22 03:55:09;;;;;;;;;;;;;;;23.25;55.94;100748.09;7397095;19;1570;-45
2023/09/22 03:57:37;;;;;;;;;;;;;;;23.25;55.28;100746.25;7397277;19;1642;-45
2023/09/22 04:00:17;;;;;;;;;;;;;;;23.22;55.06;100733.94;7398163;19;1538;-45
2023/09/22 04:02:45;;;;;;;;;;;;;;;23.17;55.30;100740.81;7397828;19;1447;-45
2023/09/22 04:05:14;;;;;;;;;;;;;;;23.37;55.52;100730.59;7392052;19;1171;-44
2023/09/22 04:07:42;;;;;;;;;;;;;;;23.47;56.26;100720.47;7350793;19;13628;-45
2023/09/22 04:10:11;;;;;;;;;;;;;;;23.59;55.90;100729.09;7396423;19;1555;-44
2023/09/22 04:12:39;;;;;;;;;;;;;;;23.69;55.82;100721.69;7392700;19;1878;-44
2023/09/22 04:15:11;;;;;;;;;;;;;;;23.62;55.92;100729.63;7396451;19;1454;-44
2023/09/22 04:17:39;;;;;;;;;;;;;;;23.77;55.77;100721.72;7396991;19;1304;-44
2023/09/22 04:20:09;;;;;;;;;;;;;;;23.80;55.97;100740.31;7394816;19;1289;-45
2023/09/22 04:22:37;;;;;;;;;;;;;;;23.96;55.61;100735.91;7396032;19;1594;-45
2023/09/22 04:25:08;;;;;;;;;;;;;;;23.98;55.57;100725.78;7395056;19;1516;-44
2023/09/22 04:27:43;;;;;;;;;;;;;;;24.01;55.36;100738.94;6365538;19;10000690;-45
2023/09/22 04:30:15;;;;;;;;;;;;;;;23.99;55.48;100751.78;7389521;19;1736;-44
2023/09/22 04:32:44;;;;;;;;;;;;;;;24.08;55.45;100739.97;7386037;19;1841;-44
2023/09/22 04:35:12;;;;;;;;;;;;;;;24.06;55.36;100720.38;7389599;19;1580;-44
2023/09/22 04:37:41;;;;;;;;;;;;;;;24.03;55.45;100739.63;7374937;19;1544;-45
2023/09/22 04:40:23;;;;;;;;;;;;;;;24.06;55.30;100735.75;7390796;19;1410;-45
2023/09/22 04:42:51;;;;;;;;;;;;;;;24.14;55.35;100720.38;7390950;19;1446;-44
2023/09/22 04:45:23;;;;;;;;;;;;;;;24.14;55.38;100722.22;7387580;19;1739;-44
2023/09/22 04:47:52;;;;;;;;;;;;;;;24.22;55.16;100720.34;7389889;19;1608;-45
2023/09/22 04:50:21;;;;;;;;;;;;;;;24.22;54.81;100725.75;7388454;19;1423;-45
2023/09/22 04:52:49;;;;;;;;;;;;;;;24.02;55.76;100729.84;7388142;19;1855;-45
2023/09/22 04:55:19;;;;;;;;;;;;;;;24.13;55.40;100729.50;7393124;19;1409;-45
2023/09/22 04:57:47;;;;;;;;;;;;;;;24.24;55.63;100735.56;7394863;19;1790;-45
2023/09/22 05:00:16;;;;;;;;;;;;;;;24.15;55.80;100722.06;7395242;19;1663;-45
2023/09/22 05:02:47;;;;;;;;;;;;;;;24.03;56.21;100726.09;7396530;19;1541;-44
2023/09/22 05:05:18;;;;;;;;;;;;;;;24.25;55.78;100723.72;7395084;19;1519;-44
2023/09/22 05:07:47;;;;;;;;;;;;;;;24.50;55.16;100736.22;7397163;19;1608;-43
2023/09/22 05:10:15;;;;;;;;;;;;;;;24.94;54.04;100734.88;7396072;19;1517;-43
2023/09/22 05:12:44;;;;;;;;;;;;;;;25.28;53.46;100734.56;7394364;19;1843;-44
2023/09/22 05:15:12;;;;;;;;;;;;;;;25.34;53.54;100730.31;7390707;19;1366;-45
2023/09/22 05:17:41;;;;;;;;;;;;;;;25.34;53.51;100725.72;7395231;19;1286;-44
2023/09/22 05:20:14;;;;;;;;;;;;;;;25.27;53.63;100737.44;7395799;19;1381;-45
2023/09/22 05:22:43;;;;;;;;;;;;;;;25.02;54.75;100743.78;7395835;19;1630;-45
2023/09/22 05:25:12;;;;;;;;;;;;;;;24.90;54.96;100728.97;7394061;19;1358;-45
2023/09/22 05:27:40;;;;;;;;;;;;;;;24.85;55.55;100725.97;7396600;19;1127;-44
2023/09/22 05:30:10;;;;;;;;;;;;;;;24.81;57.21;100725.47;7394797;19;1807;-44
2023/09/22 05:32:39;;;;;;;;;;;;;;;24.80;57.47;100717.53;7396532;19;1892;-45
2023/09/22 05:35:07;;;;;;;;;;;;;;;24.82;58.82;100726.31;7401408;19;1539;-45
2023/09/22 05:37:38;;;;;;;;;;;;;;;24.77;59.75;100728.69;7384237;19;1591;-45
2023/09/22 05:40:12;;;;;;;;;;;;;;;24.65;59.94;100730.09;7399605;19;1592;-44
2023/09/22 05:42:42;;;;;;;;;;;;;;;24.69;59.54;100731.41;7401284;19;1335;-45
2023/09/22 05:45:11;;;;;;;;;;;;;;;24.69;59.63;100737.69;7401799;19;1512;-45
2023/09/22 05:47:39;;;;;;;;;;;;;;;24.47;60.46;100749.19;7401566;19;1602;-45
2023/09/22 05:50:09;;;;;;;;;;;;;;;24.64;59.08;100737.34;7393866;19;1695;-45
2023/09/22 05:52:40;;;;;;;;;;;;;;;24.72;58.08;100753.56;7397810;19;1838;-45
2023/09/22 05:55:10;;;;;;;;;;;;;;;24.77;57.85;100753.03;7393500;19;1846;-45
2023/09/22 05:57:38;;;;;;;;;;;;;;;24.75;57.80;100752.34;7396780;19;1223;-45
2023/09/22 06:00:15;;;;;;;;;;;;;;;24.77;57.75;100750.31;7398993;19;2450;-45
2023/09/22 06:02:43;;;;;;;;;;;;;;;24.79;58.42;100743.75;7398289;19;1425;-45
2023/09/22 06:05:12;;;;;;;;;;;;;;;24.61;59.16;100743.97;7397784;19;1622;-45
2023/09/22 06:07:43;;;;;;;;;;;;;;;24.56;59.46;100737.38;7398261;19;1409;-45
2023/09/22 06:10:12;;;;;;;;;;;;;;;24.65;59.57;100746.31;7400620;19;1458;-45
2023/09/22 06:12:40;;;;;;;;;;;;;;;24.57;59.52;100739.94;7385864;19;2149;-46
2023/09/22 06:15:10;;;;;;;;;;;;;;;24.49;60.01;100750.72;7389307;19;1430;-45
2023/09/22 06:17:38;;;;;;;;;;;;;;;24.28;58.71;100743.16;7392401;19;1389;-45
2023/09/22 06:20:13;;;;;;;;;;;;;;;24.18;58.33;100735.22;7394010;19;1581;-45
2023/09/22 06:22:47;;;;;;;;;;;;;;;24.11;58.09;100750.41;7392573;19;1934;-44
2023/09/22 06:25:16;;;;;;;;;;;;;;;24.05;58.51;100763.75;7392847;19;1564;-44
2023/09/22 06:27:44;;;;;;;;;;;;;;;24.02;58.99;100762.25;7393666;19;1780;-45
2023/09/22 06:30:13;;;;;;;;;;;;;;;24.24;58.43;100781.50;7394239;19;1591;-45
2023/09/22 06:32:44;;;;;;;;;;;;;;;24.26;58.43;100774.06;7390160;19;1854;-44
2023/09/22 06:35:12;;;;;;;;;;;;;;;24.42;58.40;100774.03;7391466;19;1568;-45
2023/09/22 06:37:41;;;;;;;;;;;;;;;24.24;58.92;100776.09;7377343;19;1682;-44
2023/09/22 06:40:15;;;;;;;;;;;;;;;24.28;58.58;100778.28;7393859;19;1622;-44
2023/09/22 06:42:44;;;;;;;;;;;;;;;24.28;58.62;100777.44;7393328;19;1637;-45
2023/09/22 06:45:13;;;;;;;;;;;;;;;24.38;58.70;100783.50;7392488;19;1519;-44
2023/09/22 06:47:43;;;;;;;;;;;;;;;24.45;58.71;100779.09;7388917;19;1521;-45
2023/09/22 06:50:13;;;;;;;;;;;;;;;24.39;58.49;100777.06;7391940;19;1588;-45
2023/09/22 06:52:42;;;;;;;;;;;;;;;24.56;58.36;100788.75;7395391;19;1864;-44
2023/09/22 06:55:13;;;;;;;;;;;;;;;24.65;58.87;100784.16;7397665;19;1318;-45
2023/09/22 06:57:42;;;;;;;;;;;;;;;24.69;58.47;100778.25;7399602;19;1497;-46
2023/09/22 07:00:15;;;;;;;;;;;;;;;24.92;57.57;100786.44;7398014;19;1575;-45
2023/09/22 07:02:44;;;;;;;;;;;;;;;25.05;57.59;100787.75;7395033;19;1438;-45
2023/09/22 07:05:12;;;;;;;;;;;;;;;24.95;57.71;100791.53;7393223;19;1369;-45
2023/09/22 07:07:40;;;;;;;;;;;;;;;24.87;58.04;100778.03;7395070;19;1276;-45
2023/09/22 07:10:10;;;;;;;;;;;;;;;24.74;58.31;100780.44;7398674;19;1616;-44
2023/09/22 07:12:41;;;;;;;;;;;;;;;24.74;58.02;100783.13;7396256;19;2033;-45
2023/09/22 07:15:10;;;;;;;;;;;;;;;24.67;58.86;100782.13;7396840;19;1573;-44
2023/09/22 07:17:38;;;;;;;;;;;;;;;24.74;58.62;100778.56;7397445;19;1488;-45
2023/09/22 07:20:09;;;;;;;;;;;;;;;24.87;58.01;100771.75;7398211;19;1294;-44
2023/09/22 07:22:37;;;;;;;;;;;;;;;24.77;58.45;100788.19;7394998;19;1727;-45
2023/09/22 07:25:06;;;;;;;;;;;;;;;24.74;58.39;100783.97;7395557;19;1808;-44
2023/09/22 07:27:36;;;;;;;;;;;;;;;24.72;59.44;100779.75;7397237;19;1586;-45
2023/09/22 07:30:10;;;;;;;;;;;;;;;24.68;58.66;100779.25;7394642;19;1506;-46
2023/09/22 07:32:38;;;;;;;;;;;;;;;24.65;58.42;100774.22;7394326;19;1856;-45
2023/09/22 07:35:07;;;;;;;;;;;;;;;24.67;58.58;100771.31;7393716;19;1465;-44
2023/09/22 07:37:35;;;;;;;;;;;;;;;24.58;58.24;100771.34;7383645;19;1650;-45
2023/09/22 07:40:08;;;;;;;;;;;;;;;24.52;58.54;100782.84;7395830;19;1700;-45
2023/09/22 07:42:38;;;;;;;;;;;;;;;24.45;58.56;100787.19;7395304;19;1682;-45
2023/09/22 07:45:09;;;;;;;;;;;;;;;24.40;58.99;100770.66;7394510;19;1555;-44
2023/09/22 07:47:38;;;;;;;;;;;;;;;24.37;59.15;100771.00;7393967;19;1523;-44
2023/09/22 07:50:07;;;;;;;;;;;;;;;24.41;59.09;100764.22;7393333;19;1607;-46
2023/09/22 07:52:35;;;;;;;;;;;;;;;24.39;58.83;100768.97;7393374;19;1836;-46
2023/09/22 07:55:05;;;;;;;;;;;;;;;24.39;58.90;100777.06;7396753;19;1612;-45
2023/09/22 07:57:33;;;;;;;;;;;;;;;24.39;58.79;100771.66;7399025;19;1816;-45
2023/09/22 08:00:03;;;;;;;;;;;;;;;24.40;59.01;100773.38;7397914;19;1570;-44
2023/09/22 08:02:34;;;;;;;;;;;;;;;24.40;58.93;100776.91;7398591;19;1405;-46
2023/09/22 08:05:02;;;;;;;;;;;;;;;24.42;59.01;100774.03;7397909;19;1619;-46
2023/09/22 08:07:31;;;;;;;;;;;;;;;24.38;58.60;100788.91;7399228;19;1345;-46
2023/09/22 08:10:00;;;;;;;;;;;;;;;24.40;58.83;100792.28;7397949;19;1932;-44
2023/09/22 08:12:28;;;;;;;;;;;;;;;24.43;58.85;100783.81;7397019;19;1844;-44
2023/09/22 08:14:57;;;;;;;;;;;;;;;24.32;58.67;100785.03;7398395;19;2098;-46
2023/09/22 08:17:25;;;;;;;;;;;;;;;24.38;58.90;100788.91;7398816;19;1540;-46
2023/09/22 08:19:56;;;;;;;;;;;;;;;24.37;58.87;100789.91;7398355;19;1691;-46
2023/09/22 08:22:25;;;;;;;;;;;;;;;24.39;58.80;100782.47;7397114;19;1567;-45
2023/09/22 08:24:53;;;;;;;;;;;;;;;24.39;58.59;100774.38;7398884;19;1547;-44
2023/09/22 08:27:21;;;;;;;;;;;;;;;24.39;58.63;100777.06;7397969;19;1606;-45
2023/09/22 08:29:50;;;;;;;;;;;;;;;24.41;58.80;100770.50;7397889;19;1560;-44
2023/09/22 08:32:18;;;;;;;;;;;;;;;24.42;58.54;100780.28;7396509;19;1598;-46
2023/09/22 08:34:46;;;;;;;;;;;;;;;24.41;58.72;100775.91;7395570;19;1845;-45
2023/09/22 08:37:17;;;;;;;;;;;;;;;23.91;58.23;100731.00;7396531;19;1591;-46
2023/09/22 08:39:46;;;;;;;;;;;;;;;24.45;58.38;100784.50;7391302;19;1599;-46
2023/09/22 08:42:14;;;;;;;;;;;;;;;24.45;58.24;100784.50;7397602;19;1335;-45
2023/09/22 08:44:43;;;;;;;;;;;;;;;24.43;58.50;100764.91;7397637;19;1973;-46
2023/09/22 08:47:11;;;;;;;;;;;;;;;24.46;58.36;100775.38;7396921;19;1721;-45
2023/09/22 08:49:39;;;;;;;;;;;;;;;24.44;58.37;100782.81;7396006;19;1662;-45
2023/09/22 08:52:09;;;;;;;;;;;;;;;24.43;56.72;100764.91;7396450;19;1610;-44
2023/09/22 08:54:40;;;;;;;;;;;;;;;24.55;57.02;100782.50;7394963;19;1864;-46
2023/09/22 08:57:09;;;;;;;;;;;;;;;24.55;57.41;100787.91;7397586;19;1571;-46
2023/09/22 08:59:37;;;;;;;;;;;;;;;24.52;58.04;100779.31;7397823;19;1649;-44
2023/09/22 09:02:06;;;;;;;;;;;;;;;24.50;57.91;100770.50;7396632;19;1805;-45
2023/09/22 09:04:37;;;;;;;;;;;;;;;24.49;58.25;100775.06;7396441;19;1917;-44
2023/09/22 09:07:05;;;;;;;;;;;;;;;24.48;58.35;100767.13;7394448;19;1398;-44
2023/09/22 09:09:47;;;;;;;;;;;;;;;24.50;58.24;100755.13;7396144;19;1366;-44
2023/09/22 09:12:16;;;;;;;;;;;;;;;24.50;57.92;100759.69;7396971;19;1756;-44
2023/09/22 09:14:46;;;;;;;;;;;;;;;24.50;58.08;100757.84;7395056;19;1843;-44
2023/09/22 09:17:22;;;;;;;;;;;;;;;24.49;57.91;100764.25;7396929;19;2035;-44
2023/09/22 09:19:51;;;;;;;;;;;;;;;24.54;57.82;100761.88;7397009;19;1666;-46
2023/09/22 09:22:19;;;;;;;;;;;;;;;24.53;58.17;100749.41;7396151;19;1524;-46
2023/09/22 09:24:50;;;;;;;;;;;;;;;24.55;57.91;100758.19;7394853;19;1436;-46
2023/09/22 09:27:22;;;;;;;;;;;;;;;24.54;58.06;100761.88;7396834;19;1580;-45
2023/09/22 09:29:51;;;;;;;;;;;;;;;24.54;58.01;100756.47;7395555;19;1500;-46
2023/09/22 09:32:26;;;;;;;;;;;;;;;24.58;58.08;100744.28;7395313;19;1657;-45
2023/09/22 09:34:54;;;;;;;;;;;;;;;24.61;58.06;100752.06;7394265;19;2507;-46
2023/09/22 09:37:23;;;;;;;;;;;;;;;24.64;57.91;100752.75;7396391;19;1750;-46
2023/09/22 09:39:56;;;;;;;;;;;;;;;24.63;57.66;100742.94;7380157;19;1716;-46
2023/09/22 09:42:25;;;;;;;;;;;;;;;24.64;57.67;100733.81;7395401;19;1622;-46
2023/09/22 09:44:56;;;;;;;;;;;;;;;24.62;57.73;100736.69;7395436;19;1393;-46
2023/09/22 09:47:26;;;;;;;;;;;;;;;24.64;58.02;100731.94;7394583;19;1634;-46
2023/09/22 09:49:55;;;;;;;;;;;;;;;24.68;57.89;100735.16;7394356;19;1432;-46
2023/09/22 09:52:27;;;;;;;;;;;;;;;24.72;57.59;100764.38;7395132;19;1543;-46
2023/09/22 09:55:02;;;;;;;;;;;;;;;24.75;57.36;100722.59;7393953;19;1855;-46
2023/09/22 09:57:32;;;;;;;;;;;;;;;24.74;57.49;100712.81;7396654;19;1410;-46
2023/09/22 10:00:05;;;;;;;;;;;;;;;24.76;57.43;100727.84;7396083;19;1631;-46
2023/09/22 10:02:34;;;;;;;;;;;;;;;24.76;57.60;100714.31;7396300;19;1665;-45
2023/09/22 10:05:07;;;;;;;;;;;;;;;24.75;57.61;100706.38;7395040;19;1519;-46
2023/09/22 10:07:36;;;;;;;;;;;;;;;24.81;57.48;100711.94;7395336;19;1555;-44
2023/09/22 10:10:08;;;;;;;;;;;;;;;24.80;57.72;100706.72;7394946;19;1817;-46
2023/09/22 10:12:37;;;;;;;;;;;;;;;24.80;57.57;100706.72;7395023;19;1742;-46
2023/09/22 10:15:07;;;;;;;;;;;;;;;24.80;57.57;100704.00;7393450;19;1870;-46
2023/09/22 10:17:36;;;;;;;;;;;;;;;24.80;57.59;100707.53;7394833;19;1694;-45
2023/09/22 10:20:07;;;;;;;;;;;;;;;24.85;57.62;100712.44;7399099;19;1480;-45
2023/09/22 10:22:35;;;;;;;;;;;;;;;24.86;57.56;100708.72;7403114;19;1677;-44
2023/09/22 10:25:18;;;;;;;;;;;;;;;24.84;57.36;100708.03;7402010;19;1509;-46
2023/09/22 10:27:57;;;;;;;;;;;;;;;24.86;57.32;100705.16;7402728;19;1540;-45
2023/09/22 10:30:30;;;;;;;;;;;;;;;24.89;57.14;100694.84;7402376;19;1611;-44
2023/09/22 10:33:13;;;;;;;;;;;;;;;24.89;57.40;100683.16;7401844;19;1797;-44
2023/09/22 10:35:42;;;;;;;;;;;;;;;24.90;57.42;100683.00;7402353;19;1430;-44
2023/09/22 10:38:11;;;;;;;;;;;;;;;24.88;57.25;100687.75;7386385;19;1366;-44
2023/09/22 10:40:40;;;;;;;;;;;;;;;24.85;57.20;100693.50;7402270;19;1482;-45
2023/09/22 10:43:13;;;;;;;;;;;;;;;24.85;57.56;100704.34;7401753;19;1655;-45
2023/09/22 10:45:41;;;;;;;;;;;;;;;24.83;57.46;100678.47;7401273;19;1725;-44
2023/09/22 10:48:11;;;;;;;;;;;;;;;24.83;57.61;100679.31;7402129;19;1557;-45
2023/09/22 10:50:40;;;;;;;;;;;;;;;24.80;57.63;100668.84;7400911;19;1319;-46
2023/09/22 10:53:09;;;;;;;;;;;;;;;24.81;57.44;100673.25;7401066;19;1723;-45
2023/09/22 10:55:38;;;;;;;;;;;;;;;24.81;57.31;100665.13;7400723;19;1805;-45
2023/09/22 10:58:08;;;;;;;;;;;;;;;24.84;57.41;100667.47;7401515;19;1710;-38
2023/09/22 11:00:42;;;;;;;;;;;;;;;24.83;57.42;100667.66;7401396;19;1668;-38
2023/09/22 11:03:11;;;;;;;;;;;;;;;24.82;57.63;100666.81;7400902;19;1654;-39
2023/09/22 11:05:40;;;;;;;;;;;;;;;24.78;57.48;100660.91;7400491;19;1757;-39
2023/09/22 11:08:15;;;;;;;;;;;;;;;24.78;57.64;100660.06;7400551;19;1516;-38
2023/09/22 11:10:45;;;;;;;;;;;;;;;24.75;57.63;100655.88;7399607;19;1604;-38
2023/09/22 11:13:14;;;;;;;;;;;;;;;24.76;58.01;100659.41;7400438;19;1603;-38
2023/09/22 11:15:51;;;;;;;;;;;;;;;24.72;57.92;100649.97;7400776;19;1789;-38
2023/09/22 11:18:23;;;;;;;;;;;;;;;24.70;58.08;100646.59;7399995;19;1703;-38
2023/09/22 11:20:51;;;;;;;;;;;;;;;24.71;57.92;100648.25;7400150;19;1472;-38
2023/09/22 11:23:20;;;;;;;;;;;;;;;24.71;57.70;100640.16;7399705;19;1401;-39
2023/09/22 11:25:55;;;;;;;;;;;;;;;24.75;57.89;100644.19;7399996;19;1564;-38
2023/09/22 11:28:24;;;;;;;;;;;;;;;24.73;57.96;100638.09;7399933;19;1504;-38
2023/09/22 11:30:55;;;;;;;;;;;;;;;24.74;57.69;100631.69;7396588;19;1579;-38
2023/09/22 11:33:23;;;;;;;;;;;;;;;24.77;57.85;100631.31;7398757;19;1849;-40
2023/09/22 11:35:54;;;;;;;;;;;;;;;24.75;57.73;100627.97;7400067;19;1743;-38
2023/09/22 11:38:27;;;;;;;;;;;;;;;24.72;57.74;100621.03;7385698;19;1306;-39
2023/09/22 11:41:08;;;;;;;;;;;;;;;24.69;57.99;100624.13;7399824;19;1666;-39
2023/09/22 11:43:38;;;;;;;;;;;;;;;24.70;57.73;100617.69;7400475;19;1349;-38
2023/09/22 11:46:10;;;;;;;;;;;;;;;24.71;58.16;100621.22;7398746;19;1002;-38
2023/09/22 11:48:54;;;;;;;;;;;;;;;24.69;58.13;100623.25;7397985;19;1738;-38
2023/09/22 11:51:22;;;;;;;;;;;;;;;24.68;57.91;100617.00;7399197;19;2188;-38
2023/09/22 11:53:51;;;;;;;;;;;;;;;24.66;57.90;100612.81;7397527;19;1842;-38
2023/09/22 11:56:19;;;;;;;;;;;;;;;24.65;58.02;100603.00;7398328;19;1675;-38
2023/09/22 11:58:47;;;;;;;;;;;;;;;24.67;58.09;100601.81;7398867;19;1409;-38
2023/09/22 12:01:18;;;;;;;;;;;;;;;24.70;58.11;100611.44;7398062;19;1765;-39
2023/09/22 12:03:47;;;;;;;;;;;;;;;24.69;57.86;100607.03;7398013;19;1742;-38
2023/09/22 12:06:15;;;;;;;;;;;;;;;24.72;57.90;100607.53;7399651;19;1738;-38
2023/09/22 12:08:44;;;;;;;;;;;;;;;24.68;58.06;100598.09;7397271;19;1659;-39
2023/09/22 12:11:12;;;;;;;;;;;;;;;24.69;58.03;100607.91;7397784;19;1623;-39
2023/09/22 12:13:41;;;;;;;;;;;;;;;24.72;57.73;100598.59;7398726;19;1864;-39
2023/09/22 12:16:09;;;;;;;;;;;;;;;24.72;57.91;100612.94;7399234;19;1987;-38
2023/09/22 12:18:40;;;;;;;;;;;;;;;24.70;57.93;100604.16;7398261;19;1536;-39
2023/09/22 12:21:08;;;;;;;;;;;;;;;24.68;58.11;100579.16;7398220;19;1472;-38
2023/09/22 12:23:37;;;;;;;;;;;;;;;24.70;58.07;100592.50;7398042;19;2089;-39
2023/09/22 12:26:05;;;;;;;;;;;;;;;24.70;58.16;100581.69;7397518;19;1715;-39
2023/09/22 12:28:34;;;;;;;;;;;;;;;24.72;58.04;100594.00;7397649;19;1355;-38
2023/09/22 12:31:02;;;;;;;;;;;;;;;24.73;57.98;100600.25;7398039;19;1804;-39
2023/09/22 12:33:31;;;;;;;;;;;;;;;24.69;58.02;100593.50;7395403;19;1398;-39
2023/09/22 12:36:02;;;;;;;;;;;;;;;24.39;57.93;100596.00;7394745;19;1854;-38
2023/09/22 12:38:30;;;;;;;;;;;;;;;24.06;57.60;100588.00;7391465;19;1422;-38
2023/09/22 12:40:59;;;;;;;;;;;;;;;23.82;58.16;100587.06;7391507;19;1651;-38
2023/09/22 12:43:27;;;;;;;;;;;;;;;23.73;58.36;100596.13;7394933;19;1038;-38
2023/09/22 12:45:56;;;;;;;;;;;;;;;23.70;58.91;100591.09;6869440;19;9999819;-38
2023/09/22 12:48:24;;;;;;;;;;;;;;;23.96;58.12;100590.91;7387355;19;1904;-38
2023/09/22 12:50:55;;;;;;;;;;;;;;;24.16;57.80;100596.75;7389487;19;1571;-39
2023/09/22 12:53:27;;;;;;;;;;;;;;;24.40;57.43;100600.38;7391545;19;1396;-38
2023/09/22 12:55:57;;;;;;;;;;;;;;;24.47;57.46;100598.69;7390378;19;1875;-38
2023/09/22 12:58:26;;;;;;;;;;;;;;;24.58;57.28;100592.91;7392799;19;1293;-38